createdAt,value
2017-09-02T00:00:58.481Z,99.60
2017-09-02T00:03:24.983Z,99.60
2017-09-02T00:05:51.451Z,99.60
2017-09-02T00:08:17.918Z,99.60
2017-09-02T00:10:44.413Z,99.70
2017-09-02T00:13:10.854Z,99.70
2017-09-02T00:15:37.314Z,99.70
2017-09-02T00:18:03.733Z,99.70
2017-09-02T00:20:30.119Z,99.80
2017-09-02T00:22:56.577Z,99.80
2017-09-02T00:25:23.015Z,99.80
2017-09-02T00:27:49.442Z,99.80
2017-09-02T00:30:16.475Z,99.70
2017-09-02T00:32:42.842Z,99.60
2017-09-02T00:35:09.182Z,99.60
2017-09-02T00:37:35.704Z,99.50
2017-09-02T00:40:02.116Z,99.30
2017-09-02T00:42:28.639Z,99.30
2017-09-02T00:44:55.081Z,99.30
2017-09-02T00:47:21.689Z,99.40
2017-09-02T00:49:48.616Z,99.40
2017-09-02T00:52:15.210Z,99.40
2017-09-02T00:54:41.665Z,99.40
2017-09-02T00:57:08.089Z,99.30
2017-09-02T00:59:34.647Z,99.10
2017-09-02T01:02:01.386Z,99.00
2017-09-02T01:04:27.786Z,98.90
2017-09-02T01:06:54.234Z,99.00
2017-09-02T01:09:20.686Z,98.90
2017-09-02T01:11:47.077Z,98.80
2017-09-02T01:14:13.492Z,98.70
2017-09-02T01:16:40.007Z,98.80
2017-09-02T01:19:06.499Z,98.80
2017-09-02T01:21:32.933Z,98.90
2017-09-02T01:23:59.670Z,99.00
2017-09-02T01:26:26.029Z,99.00
2017-09-02T01:28:52.430Z,98.90
2017-09-02T01:31:18.904Z,98.80
2017-09-02T01:33:45.301Z,98.80
2017-09-02T01:36:11.657Z,98.90
2017-09-02T01:38:38.234Z,98.80
2017-09-02T01:41:04.745Z,98.80
2017-09-02T01:43:31.197Z,98.80
2017-09-02T01:45:58.147Z,98.70
2017-09-02T01:48:24.901Z,98.60
2017-09-02T01:50:51.375Z,98.50
2017-09-02T01:53:17.847Z,98.60
2017-09-02T01:55:44.285Z,98.60
2017-09-02T01:58:10.740Z,98.70
2017-09-02T02:00:37.173Z,98.80
2017-09-02T02:03:03.588Z,98.90
2017-09-02T02:05:30.192Z,98.80
2017-09-02T02:07:56.782Z,98.70
2017-09-02T02:10:23.208Z,98.70
2017-09-02T02:12:49.878Z,98.60
2017-09-02T02:15:16.429Z,98.70
2017-09-02T02:17:42.870Z,98.90
2017-09-02T02:20:09.263Z,99.00
2017-09-02T02:22:35.691Z,98.90
2017-09-02T02:25:02.158Z,99.00
2017-09-02T02:27:28.570Z,99.10
2017-09-02T02:29:54.970Z,99.30
2017-09-02T02:32:21.422Z,99.40
2017-09-02T02:34:47.885Z,99.50
2017-09-02T02:37:14.254Z,99.40
2017-09-02T02:39:41.530Z,99.40
2017-09-02T02:42:07.886Z,99.50
2017-09-02T02:44:34.239Z,99.40
2017-09-02T02:47:00.662Z,99.30
2017-09-02T02:49:27.022Z,99.00
2017-09-02T02:51:53.395Z,99.10
2017-09-02T02:54:19.795Z,99.10
2017-09-02T02:56:46.158Z,99.10
2017-09-02T02:59:12.534Z,99.00
2017-09-02T03:01:39.212Z,98.90
2017-09-02T03:04:05.589Z,98.90
2017-09-02T03:06:31.979Z,98.80
2017-09-02T03:08:58.392Z,98.60
2017-09-02T03:11:24.765Z,98.70
2017-09-02T03:13:51.183Z,98.80
2017-09-02T03:16:17.560Z,98.90
2017-09-02T03:18:43.955Z,98.90
2017-09-02T03:21:10.313Z,99.00
2017-09-02T03:23:36.731Z,99.10
2017-09-02T03:26:03.140Z,99.20
2017-09-02T03:28:29.885Z,99.30
2017-09-02T03:30:56.280Z,99.20
2017-09-02T03:33:22.664Z,99.70
2017-09-02T03:35:49.089Z,99.90
2017-09-02T03:38:15.509Z,99.90
2017-09-02T03:40:41.938Z,99.40
2017-09-02T03:43:08.344Z,98.70
2017-09-02T03:45:34.749Z,98.60
2017-09-02T03:48:01.203Z,97.90
2017-09-02T03:50:27.604Z,97.50
2017-09-02T03:52:53.984Z,97.50
2017-09-02T03:55:20.695Z,97.30
2017-09-02T03:57:47.013Z,97.10
2017-09-02T04:00:13.369Z,97.40
2017-09-02T04:02:39.770Z,97.50
2017-09-02T04:05:06.115Z,97.50
2017-09-02T04:07:32.489Z,98.20
2017-09-02T04:09:58.862Z,98.20
2017-09-02T04:12:25.258Z,97.60
2017-09-02T04:14:51.627Z,97.10
2017-09-02T04:17:18.027Z,96.30
2017-09-02T04:19:44.389Z,95.40
2017-09-02T04:22:11.130Z,95.30
2017-09-02T04:24:37.505Z,94.60
2017-09-02T04:27:03.866Z,93.80
2017-09-02T04:29:30.317Z,94.90
2017-09-02T04:31:56.669Z,94.50
2017-09-02T04:34:23.034Z,94.70
2017-09-02T04:36:49.376Z,94.20
2017-09-02T04:39:15.792Z,94.20
2017-09-02T04:41:42.213Z,93.30
2017-09-02T04:44:08.599Z,93.50
2017-09-02T04:46:35.073Z,93.00
2017-09-02T04:49:01.465Z,92.80
2017-09-02T04:51:27.810Z,91.90
2017-09-02T04:53:54.548Z,92.00
2017-09-02T04:56:20.920Z,92.50
2017-09-02T04:58:47.336Z,93.10
2017-09-02T05:01:13.745Z,93.80
2017-09-02T05:03:40.135Z,94.30
2017-09-02T05:06:06.562Z,94.80
2017-09-02T05:08:32.924Z,95.20
2017-09-02T05:10:59.347Z,95.50
2017-09-02T05:13:25.764Z,95.70
2017-09-02T05:15:52.141Z,96.00
2017-09-02T05:18:18.548Z,96.10
2017-09-02T05:20:45.206Z,96.40
2017-09-02T05:23:11.660Z,96.60
2017-09-02T05:25:38.091Z,96.80
2017-09-02T05:28:04.475Z,97.00
2017-09-02T05:30:30.867Z,97.00
2017-09-02T05:32:57.272Z,97.10
2017-09-02T05:35:23.659Z,97.10
2017-09-02T05:37:50.075Z,97.10
2017-09-02T05:40:16.435Z,97.10
2017-09-02T05:42:42.841Z,97.20
2017-09-02T05:45:09.251Z,97.30
2017-09-02T05:47:36.125Z,97.30
2017-09-02T05:50:02.574Z,97.30
2017-09-02T05:52:28.922Z,97.40
2017-09-02T05:54:55.345Z,97.40
2017-09-02T05:57:21.776Z,97.40
2017-09-02T05:59:48.174Z,97.50
2017-09-02T06:02:14.556Z,97.50
2017-09-02T06:04:40.935Z,97.60
2017-09-02T06:07:07.281Z,97.70
2017-09-02T06:09:33.694Z,97.50
2017-09-02T06:12:00.095Z,97.50
2017-09-02T06:14:26.551Z,97.60
2017-09-02T06:16:52.957Z,97.60
2017-09-02T06:19:19.392Z,97.60
2017-09-02T06:21:45.822Z,97.50
2017-09-02T06:24:12.256Z,97.70
2017-09-02T06:26:38.649Z,98.20
2017-09-02T06:29:05.075Z,98.40
2017-09-02T06:31:31.493Z,98.30
2017-09-02T06:33:57.930Z,98.50
2017-09-02T06:36:24.747Z,97.90
2017-09-02T06:38:51.158Z,97.50
2017-09-02T06:41:17.582Z,97.50
2017-09-02T06:43:43.999Z,97.40
2017-09-02T06:46:10.391Z,97.30
2017-09-02T06:48:36.899Z,97.00
2017-09-02T06:51:03.299Z,96.90
2017-09-02T06:53:29.740Z,97.00
2017-09-02T06:55:56.079Z,97.10
2017-09-02T06:58:22.806Z,97.10
2017-09-02T07:00:49.246Z,97.00
2017-09-02T07:03:15.634Z,97.10
2017-09-02T07:05:42.115Z,97.20
2017-09-02T07:08:08.583Z,97.20
2017-09-02T07:10:35.028Z,97.30
2017-09-02T07:13:01.454Z,97.40
2017-09-02T07:15:27.885Z,97.70
2017-09-02T07:17:54.302Z,97.40
2017-09-02T07:20:20.708Z,97.40
2017-09-02T07:22:47.165Z,97.40
2017-09-02T07:25:13.563Z,97.40
2017-09-02T07:27:39.955Z,97.40
2017-09-02T07:30:06.358Z,97.30
2017-09-02T07:32:32.762Z,97.10
2017-09-02T07:34:59.150Z,96.80
2017-09-02T07:37:25.943Z,96.70
2017-09-02T07:39:52.387Z,96.40
2017-09-02T07:42:18.791Z,96.20
2017-09-02T07:44:45.203Z,96.00
2017-09-02T07:47:11.575Z,95.90
2017-09-02T07:49:37.992Z,96.00
2017-09-02T07:52:04.377Z,95.80
2017-09-02T07:54:30.767Z,95.60
2017-09-02T07:56:57.057Z,95.60
2017-09-02T07:59:23.436Z,95.60
2017-09-02T08:01:49.794Z,95.70
2017-09-02T08:04:16.233Z,95.70
2017-09-02T08:06:42.623Z,95.80
2017-09-02T08:09:09.318Z,95.60
2017-09-02T08:11:35.737Z,95.50
2017-09-02T08:14:02.117Z,95.70
2017-09-02T08:16:28.515Z,95.80
2017-09-02T08:18:54.871Z,95.90
2017-09-02T08:21:21.249Z,96.10
2017-09-02T08:23:47.589Z,95.90
2017-09-02T08:26:14.012Z,95.70
2017-09-02T08:28:40.373Z,95.60
2017-09-02T08:31:07.086Z,95.50
2017-09-02T08:33:33.456Z,95.70
2017-09-02T08:35:59.866Z,95.10
2017-09-02T08:38:26.283Z,95.00
2017-09-02T08:40:52.655Z,95.00
2017-09-02T08:43:18.976Z,94.80
2017-09-02T08:45:45.343Z,94.90
2017-09-02T08:48:11.785Z,95.00
2017-09-02T08:50:38.132Z,95.10
2017-09-02T08:53:04.516Z,95.30
2017-09-02T08:55:30.883Z,94.90
2017-09-02T08:57:57.411Z,95.10
2017-09-02T09:00:23.818Z,95.40
2017-09-02T09:02:50.508Z,95.50
2017-09-02T09:05:16.861Z,95.40
2017-09-02T09:07:43.231Z,95.50
2017-09-02T09:10:09.600Z,95.50
2017-09-02T09:12:35.986Z,95.30
2017-09-02T09:15:02.415Z,95.60
2017-09-02T09:17:28.770Z,96.10
2017-09-02T09:19:55.137Z,96.00
2017-09-02T09:22:21.506Z,96.10
2017-09-02T09:24:47.892Z,96.20
2017-09-02T09:27:14.257Z,96.10
2017-09-02T09:29:40.656Z,95.80
2017-09-02T09:32:06.994Z,96.10
2017-09-02T09:34:33.714Z,96.20
2017-09-02T09:37:00.126Z,96.00
2017-09-02T09:39:26.505Z,95.60
2017-09-02T09:41:52.900Z,95.50
2017-09-02T09:44:19.279Z,95.50
2017-09-02T09:46:45.707Z,95.90
2017-09-02T09:49:12.070Z,95.70
2017-09-02T09:51:38.429Z,95.70
2017-09-02T09:54:04.768Z,95.70
2017-09-02T09:56:31.145Z,95.10
2017-09-02T09:58:57.506Z,95.00
2017-09-02T10:01:24.232Z,94.60
2017-09-02T10:03:50.616Z,94.90
2017-09-02T10:06:16.942Z,94.90
2017-09-02T10:08:43.370Z,94.50
2017-09-02T10:11:09.730Z,94.10
2017-09-02T10:13:36.087Z,94.40
2017-09-02T10:16:02.486Z,94.20
2017-09-02T10:18:28.873Z,94.30
2017-09-02T10:20:55.263Z,94.50
2017-09-02T10:23:21.912Z,94.80
2017-09-02T10:25:48.266Z,95.00
2017-09-02T10:28:14.632Z,95.20
2017-09-02T10:30:41.011Z,94.80
2017-09-02T10:33:07.399Z,95.10
2017-09-02T10:35:33.782Z,95.10
2017-09-02T10:38:00.157Z,94.90
2017-09-02T10:40:26.612Z,95.00
2017-09-02T10:42:53.009Z,95.30
2017-09-02T10:45:19.690Z,95.50
2017-09-02T10:47:46.141Z,95.30
2017-09-02T10:50:12.550Z,95.40
2017-09-02T10:52:38.907Z,95.90
2017-09-02T10:55:05.302Z,96.20
2017-09-02T10:57:31.688Z,96.00
2017-09-02T10:59:58.116Z,96.20
2017-09-02T11:02:24.546Z,96.20
2017-09-02T11:04:50.951Z,96.20
2017-09-02T11:07:17.404Z,96.20
2017-09-02T11:09:43.800Z,96.20
2017-09-02T11:12:10.185Z,96.30
2017-09-02T11:14:36.607Z,97.40
2017-09-02T11:17:02.959Z,97.50
2017-09-02T11:19:29.738Z,96.90
2017-09-02T11:21:56.270Z,96.70
2017-09-02T11:24:22.726Z,96.30
2017-09-02T11:26:49.174Z,96.40
2017-09-02T11:29:15.598Z,95.50
2017-09-02T11:31:42.019Z,95.40
2017-09-02T11:34:08.405Z,95.80
2017-09-02T11:36:34.864Z,95.60
2017-09-02T11:39:01.231Z,94.90
2017-09-02T11:41:27.634Z,94.70
2017-09-02T11:43:54.017Z,94.50
2017-09-02T11:46:20.413Z,94.30
2017-09-02T11:48:46.831Z,94.20
2017-09-02T11:51:13.163Z,93.50
2017-09-02T11:53:39.536Z,93.10
2017-09-02T11:56:05.951Z,93.00
2017-09-02T11:58:32.626Z,93.10
2017-09-02T12:00:58.983Z,93.10
2017-09-02T12:03:25.380Z,93.10
2017-09-02T12:05:51.773Z,92.60
2017-09-02T12:08:18.116Z,92.10
2017-09-02T12:10:44.489Z,91.80
2017-09-02T12:13:10.817Z,91.60
2017-09-02T12:15:37.205Z,92.30
2017-09-02T12:18:03.582Z,92.20
2017-09-02T12:20:30.306Z,92.60
2017-09-02T12:22:56.698Z,93.00
2017-09-02T12:25:23.072Z,92.90
2017-09-02T12:27:49.460Z,92.40
2017-09-02T12:30:15.893Z,92.60
2017-09-02T12:32:42.255Z,92.10
2017-09-02T12:35:08.644Z,91.90
2017-09-02T12:37:35.026Z,92.20
2017-09-02T12:40:01.379Z,92.30
2017-09-02T12:42:28.023Z,93.00
2017-09-02T12:44:54.391Z,93.10
2017-09-02T12:47:20.857Z,92.30
2017-09-02T12:49:47.229Z,92.10
2017-09-02T12:52:13.639Z,92.20
2017-09-02T12:54:40.062Z,92.10
2017-09-02T12:57:06.448Z,92.60
2017-09-02T12:59:32.849Z,92.90
2017-09-02T13:01:59.245Z,92.40
2017-09-02T13:04:25.714Z,93.00
2017-09-02T13:06:52.123Z,93.20
2017-09-02T13:09:18.832Z,93.40
2017-09-02T13:11:45.259Z,93.50
2017-09-02T13:14:11.669Z,93.80
2017-09-02T13:16:38.092Z,93.80
2017-09-02T13:19:04.484Z,93.60
2017-09-02T13:21:30.856Z,93.90
2017-09-02T13:23:57.251Z,94.30
2017-09-02T13:26:23.693Z,94.70
2017-09-02T13:28:50.099Z,94.40
2017-09-02T13:31:16.814Z,94.50
2017-09-02T13:33:43.161Z,94.50
2017-09-02T13:36:09.568Z,94.40
2017-09-02T13:38:35.940Z,93.90
2017-09-02T13:41:02.320Z,93.90
2017-09-02T13:43:28.740Z,94.20
2017-09-02T13:45:55.167Z,94.40
2017-09-02T13:48:21.707Z,94.70
2017-09-02T13:50:48.128Z,94.80
2017-09-02T13:53:14.895Z,94.90
2017-09-02T13:55:41.320Z,95.10
2017-09-02T13:58:07.790Z,95.30
2017-09-02T14:00:34.174Z,95.50
2017-09-02T14:03:01.319Z,95.30
2017-09-02T14:05:27.731Z,95.70
2017-09-02T14:07:54.110Z,95.70
2017-09-02T14:10:20.603Z,95.60
2017-09-02T14:12:47.958Z,95.50
2017-09-02T14:15:14.452Z,95.30
2017-09-02T14:17:40.868Z,95.40
2017-09-02T14:20:07.709Z,95.60
2017-09-02T14:22:34.074Z,95.90
2017-09-02T14:25:00.525Z,96.30
2017-09-02T14:27:26.907Z,96.60
2017-09-02T14:29:53.317Z,96.80
2017-09-02T14:32:19.745Z,96.70
2017-09-02T14:34:46.121Z,96.60
2017-09-02T14:37:12.533Z,96.40
2017-09-02T14:39:38.873Z,96.30
2017-09-02T14:42:05.287Z,96.00
2017-09-02T14:44:31.686Z,96.00
2017-09-02T14:46:58.533Z,96.30
2017-09-02T14:49:24.900Z,96.50
2017-09-02T14:51:51.299Z,96.50
2017-09-02T14:54:17.668Z,96.20
2017-09-02T14:56:44.050Z,96.10
2017-09-02T14:59:10.459Z,96.00
2017-09-02T15:01:36.865Z,96.20
2017-09-02T15:04:03.271Z,96.10
2017-09-02T15:06:29.647Z,95.80
2017-09-02T15:08:56.051Z,95.80
2017-09-02T15:11:22.418Z,96.00
2017-09-02T15:13:48.893Z,96.10
2017-09-02T15:16:15.314Z,96.30
2017-09-02T15:18:41.679Z,96.50
2017-09-02T15:21:08.100Z,96.80
2017-09-02T15:23:34.506Z,96.90
2017-09-02T15:26:01.232Z,96.90
2017-09-02T15:28:27.596Z,96.90
2017-09-02T15:30:53.963Z,96.80
2017-09-02T15:33:20.379Z,96.60
2017-09-02T15:35:46.720Z,96.80
2017-09-02T15:38:13.156Z,97.00
2017-09-02T15:40:39.598Z,96.80
2017-09-02T15:43:06.031Z,96.80
2017-09-02T15:45:32.448Z,96.80
2017-09-02T15:47:58.911Z,96.90
2017-09-02T15:50:25.333Z,96.60
2017-09-02T15:52:52.185Z,96.70
2017-09-02T15:55:18.598Z,96.80
2017-09-02T15:57:45.065Z,96.30
2017-09-02T16:00:11.456Z,95.70
2017-09-02T16:02:37.828Z,95.90
2017-09-02T16:05:04.200Z,96.10
2017-09-02T16:07:30.569Z,96.50
2017-09-02T16:09:57.124Z,96.70
2017-09-02T16:12:23.475Z,96.90
2017-09-02T16:14:50.165Z,97.10
2017-09-02T16:17:16.523Z,97.30
2017-09-02T16:19:42.870Z,97.60
2017-09-02T16:22:09.245Z,97.70
2017-09-02T16:24:35.578Z,98.00
2017-09-02T16:27:01.967Z,98.10
2017-09-02T16:29:28.327Z,98.10
2017-09-02T16:31:54.743Z,98.20
2017-09-02T16:34:21.124Z,98.40
2017-09-02T16:36:47.828Z,98.30
2017-09-02T16:39:14.210Z,98.40
2017-09-02T16:41:40.582Z,98.40
2017-09-02T16:44:06.965Z,98.50
2017-09-02T16:46:33.417Z,98.60
2017-09-02T16:48:59.818Z,98.70
2017-09-02T16:51:26.234Z,98.80
2017-09-02T16:53:52.632Z,98.90
2017-09-02T16:56:19.029Z,98.70
2017-09-02T16:58:45.432Z,98.80
2017-09-02T17:01:11.826Z,98.90
2017-09-02T17:03:38.523Z,98.90
2017-09-02T17:06:04.965Z,99.10
2017-09-02T17:08:31.320Z,99.10
2017-09-02T17:10:57.762Z,99.10
2017-09-02T17:13:24.182Z,99.10
2017-09-02T17:15:50.597Z,99.30
2017-09-02T17:18:17.047Z,99.30
2017-09-02T17:20:43.477Z,99.10
2017-09-02T17:23:09.886Z,99.00
2017-09-02T17:25:36.319Z,99.10
2017-09-02T17:28:02.739Z,99.00
2017-09-02T17:30:29.424Z,99.10
2017-09-02T17:32:55.798Z,99.10
2017-09-02T17:35:22.143Z,99.10
2017-09-02T17:37:48.574Z,99.00
2017-09-02T17:40:14.924Z,98.90
2017-09-02T17:42:41.295Z,99.00
2017-09-02T17:45:07.620Z,99.10
2017-09-02T17:47:34.077Z,99.20
2017-09-02T17:50:00.449Z,99.30
2017-09-02T17:52:26.831Z,99.30
2017-09-02T17:54:53.242Z,99.40
2017-09-02T17:57:19.712Z,99.40
2017-09-02T17:59:46.153Z,99.40
2017-09-02T18:02:12.576Z,99.50
2017-09-02T18:04:39.035Z,99.60
2017-09-02T18:07:05.471Z,99.70
2017-09-02T18:09:31.897Z,99.70
2017-09-02T18:11:58.302Z,99.90
2017-09-02T18:14:24.722Z,99.90
2017-09-02T18:16:51.154Z,99.90
2017-09-02T18:19:17.575Z,99.90
2017-09-02T18:21:44.384Z,99.90
2017-09-02T18:24:10.826Z,99.90
2017-09-02T18:26:37.284Z,99.90
2017-09-02T18:29:03.760Z,99.90
2017-09-02T18:31:30.592Z,99.90
2017-09-02T18:33:57.158Z,99.90
2017-09-02T18:36:23.614Z,99.90
2017-09-02T18:38:50.007Z,99.90
2017-09-02T18:41:16.416Z,99.90
2017-09-02T18:43:42.865Z,99.90
2017-09-02T18:46:09.484Z,99.90
2017-09-02T18:48:36.009Z,99.90
2017-09-02T18:51:02.449Z,99.90
2017-09-02T18:53:29.540Z,99.90
2017-09-02T18:55:56.068Z,99.90
2017-09-02T18:58:22.866Z,99.90
2017-09-02T19:00:49.441Z,99.90
2017-09-02T19:03:15.868Z,99.90
2017-09-02T19:05:42.376Z,99.90
2017-09-02T19:08:09.265Z,99.90
2017-09-02T19:10:35.820Z,99.90
2017-09-02T19:13:02.415Z,99.90
2017-09-02T19:15:29.079Z,99.90
2017-09-02T19:17:55.589Z,99.90
2017-09-02T19:20:22.049Z,99.90
2017-09-02T19:22:48.612Z,99.90
2017-09-02T19:25:15.411Z,99.90
2017-09-02T19:27:41.945Z,99.90
2017-09-02T19:30:08.418Z,99.90
2017-09-02T19:32:34.910Z,99.90
2017-09-02T19:35:01.419Z,99.90
2017-09-02T19:37:27.935Z,99.90
2017-09-02T19:39:54.475Z,99.90
2017-09-02T19:42:20.962Z,99.90
2017-09-02T19:44:47.410Z,99.90
2017-09-02T19:47:14.018Z,99.90
2017-09-02T19:49:40.465Z,99.90
2017-09-02T19:52:07.271Z,99.90
2017-09-02T19:54:33.695Z,99.90
2017-09-02T19:57:00.214Z,99.90
2017-09-02T19:59:26.824Z,99.90
2017-09-02T20:01:53.285Z,99.90
2017-09-02T20:04:20.261Z,99.90
2017-09-02T20:06:46.755Z,99.90
2017-09-02T20:09:13.278Z,99.90
2017-09-02T20:11:39.827Z,99.90
2017-09-02T20:14:06.258Z,99.90
2017-09-02T20:16:32.702Z,99.90
2017-09-02T20:18:59.129Z,99.90
2017-09-02T20:21:25.584Z,99.90
2017-09-02T20:23:52.062Z,99.90
2017-09-02T20:26:18.592Z,99.90
2017-09-02T20:28:45.047Z,99.90
2017-09-02T20:31:11.538Z,99.90
2017-09-02T20:33:37.976Z,99.90
2017-09-02T20:36:04.921Z,99.90
2017-09-02T20:38:31.373Z,99.90
2017-09-02T20:40:57.769Z,99.90
2017-09-02T20:43:24.325Z,99.90
2017-09-02T20:45:50.781Z,99.90
2017-09-02T20:48:17.631Z,99.90
2017-09-02T20:50:44.093Z,99.90
2017-09-02T20:53:10.924Z,99.90
2017-09-02T20:55:37.468Z,99.90
2017-09-02T20:58:03.868Z,99.90
2017-09-02T21:00:30.259Z,99.90
2017-09-02T21:02:56.669Z,99.90
2017-09-02T21:05:23.111Z,99.90
2017-09-02T21:07:49.490Z,99.90
2017-09-02T21:10:16.038Z,99.90
2017-09-02T21:12:42.558Z,99.90
2017-09-02T21:15:08.958Z,99.90
2017-09-02T21:17:35.531Z,99.90
2017-09-02T21:20:01.880Z,99.90
2017-09-02T21:22:28.277Z,99.90
2017-09-02T21:24:54.633Z,99.90
2017-09-02T21:27:21.036Z,99.90
2017-09-02T21:29:47.480Z,99.90
2017-09-02T21:32:14.215Z,99.90
2017-09-02T21:34:40.747Z,99.90
2017-09-02T21:37:07.110Z,99.90
2017-09-02T21:39:33.627Z,99.90
2017-09-02T21:42:00.012Z,99.90
2017-09-02T21:44:26.443Z,99.90
2017-09-02T21:46:52.957Z,99.90
2017-09-02T21:49:19.358Z,99.90
2017-09-02T21:51:45.770Z,99.90
2017-09-02T21:54:12.764Z,99.90
2017-09-02T21:56:39.147Z,99.90
2017-09-02T21:59:05.555Z,99.90
2017-09-02T22:01:31.952Z,99.90
2017-09-02T22:03:58.325Z,99.90
2017-09-02T22:06:24.746Z,99.90
2017-09-02T22:08:51.145Z,99.90
2017-09-02T22:11:17.906Z,99.90
2017-09-02T22:13:44.274Z,99.90
2017-09-02T22:16:10.756Z,99.90
2017-09-02T22:18:37.308Z,99.90
2017-09-02T22:21:03.696Z,99.90
2017-09-02T22:23:30.114Z,99.90
2017-09-02T22:25:56.620Z,99.90
2017-09-02T22:28:23.015Z,99.90
2017-09-02T22:30:49.479Z,99.90
2017-09-02T22:33:15.934Z,99.90
2017-09-02T22:35:42.352Z,99.90
2017-09-02T22:38:08.695Z,99.90
2017-09-02T22:40:35.101Z,99.90
2017-09-02T22:43:01.434Z,99.90
2017-09-02T22:45:27.808Z,99.90
2017-09-02T22:47:54.324Z,99.90
2017-09-02T22:50:20.748Z,99.90
2017-09-02T22:52:47.540Z,99.90
2017-09-02T22:55:13.974Z,99.90
2017-09-02T22:57:40.356Z,99.90
2017-09-02T23:00:06.713Z,99.90
2017-09-02T23:02:33.118Z,99.90
2017-09-02T23:04:59.503Z,99.90
2017-09-02T23:07:25.992Z,99.90
2017-09-02T23:09:52.378Z,99.90
2017-09-02T23:12:18.709Z,99.90
2017-09-02T23:14:45.077Z,99.90
2017-09-02T23:17:11.448Z,99.90
2017-09-02T23:19:37.869Z,99.90
2017-09-02T23:22:04.414Z,99.90
2017-09-02T23:24:30.804Z,99.90
2017-09-02T23:26:57.186Z,99.90
2017-09-02T23:29:30.751Z,99.90
2017-09-02T23:31:57.114Z,99.90
2017-09-02T23:34:23.489Z,99.90
2017-09-02T23:36:49.889Z,99.90
2017-09-02T23:39:16.264Z,99.90
2017-09-02T23:41:42.649Z,99.90
2017-09-02T23:44:09.060Z,99.90
2017-09-02T23:46:35.443Z,99.90
2017-09-02T23:49:01.836Z,99.90
2017-09-02T23:51:28.210Z,99.90
2017-09-02T23:53:54.597Z,99.90
2017-09-02T23:56:20.996Z,99.90
2017-09-02T23:58:47.394Z,99.90
